Time;durP1;ratioP1;P1;durP2;ratioP2;P2;SDS_P1;SDS_P2;PMS_P1;PMS_P2;Temp;Humidity;BMP_temperature;BMP_pressure;BME280_temperature;BME280_humidity;BME280_pressure;Samples;Min_cycle;Max_cycle;Signal;HPM_P1;HPM_P2
2021/07/03 00:05:28;;;;;;;6.55;2.95;;;15.70;99.90;;;;;;20876087;28;20041;-49
2021/07/03 00:15:30;;;;;;;6.25;2.55;;;15.50;99.90;;;;;;20891541;28;20049;-49
2021/07/03 00:25:31;;;;;;;13.10;2.95;;;15.40;99.90;;;;;;20887030;28;20823;-49
2021/07/03 00:35:32;;;;;;;9.52;2.72;;;15.40;99.90;;;;;;20884520;28;20045;-49
2021/07/03 00:45:33;;;;;;;6.07;2.60;;;15.30;99.90;;;;;;20890367;28;20040;-49
2021/07/03 00:55:35;;;;;;;5.63;2.47;;;15.30;99.90;;;;;;20898894;28;20052;-49
2021/07/03 01:05:37;;;;;;;8.85;2.53;;;15.20;99.90;;;;;;20891102;28;20055;-49
2021/07/03 01:15:38;;;;;;;6.30;2.42;;;15.10;99.90;;;;;;20876808;28;20895;-49
2021/07/03 01:25:39;;;;;;;4.82;2.80;;;15.10;99.90;;;;;;20888043;28;20044;-49
2021/07/03 01:35:41;;;;;;;7.03;2.85;;;15.00;99.90;;;;;;20877270;28;20055;-49
2021/07/03 01:45:42;;;;;;;7.28;2.20;;;15.00;99.90;;;;;;20872312;28;20052;-49
2021/07/03 01:55:44;;;;;;;7.43;2.67;;;14.80;99.90;;;;;;20874996;28;20053;-49
2021/07/03 02:05:46;;;;;;;6.75;2.92;;;14.70;99.90;;;;;;20883339;28;20499;-49
2021/07/03 02:15:47;;;;;;;5.15;2.28;;;14.70;99.90;;;;;;20891800;28;20044;-49
2021/07/03 02:25:48;;;;;;;8.77;4.03;;;14.70;99.90;;;;;;20882403;28;20526;-49
2021/07/03 02:35:49;;;;;;;9.40;3.28;;;14.70;99.90;;;;;;20880585;28;20059;-49
2021/07/03 02:45:50;;;;;;;8.65;3.28;;;14.70;99.90;;;;;;20881902;28;20040;-49
2021/07/03 02:55:51;;;;;;;6.78;3.28;;;14.70;99.90;;;;;;20889646;28;20681;-49
2021/07/03 03:05:52;;;;;;;7.47;2.80;;;14.70;99.90;;;;;;20883090;28;20455;-49
2021/07/03 03:15:54;;;;;;;5.60;3.00;;;14.70;99.90;;;;;;20906834;28;20411;-49
2021/07/03 03:25:55;;;;;;;7.75;3.50;;;14.80;99.90;;;;;;20900290;28;20508;-49
2021/07/03 03:35:56;;;;;;;7.90;3.95;;;14.80;99.90;;;;;;20896540;28;20064;-49
2021/07/03 03:45:58;;;;;;;14.80;4.40;;;14.90;99.90;;;;;;20903691;28;20032;-49
2021/07/03 03:55:59;;;;;;;10.65;4.63;;;14.90;99.90;;;;;;20887768;28;20569;-49
2021/07/03 04:06:00;;;;;;;12.30;5.88;;;14.90;99.90;;;;;;20893053;28;20811;-49
2021/07/03 04:16:01;;;;;;;12.60;4.82;;;15.00;99.90;;;;;;20896217;28;20549;-49
2021/07/03 04:26:02;;;;;;;12.32;4.65;;;15.10;99.90;;;;;;20885693;28;23253;-49
2021/07/03 04:36:04;;;;;;;11.50;4.82;;;15.20;99.90;;;;;;20886534;28;20044;-49
2021/07/03 04:46:05;;;;;;;11.07;5.15;;;15.10;99.90;;;;;;20896151;28;20064;-49
2021/07/03 04:56:06;;;;;;;11.55;4.95;;;15.10;99.90;;;;;;20901360;28;20507;-49
2021/07/03 05:06:07;;;;;;;16.70;5.43;;;15.20;99.90;;;;;;20896610;28;21341;-49
2021/07/03 05:16:08;;;;;;;21.48;6.80;;;15.40;99.90;;;;;;20889009;28;20531;-50
2021/07/03 05:26:09;;;;;;;19.30;6.40;;;15.90;99.90;;;;;;20885318;28;20511;-48
2021/07/03 05:36:10;;;;;;;16.65;6.30;;;16.10;99.90;;;;;;20882706;28;20862;-49
2021/07/03 05:46:13;;;;;;;15.27;6.00;;;16.30;99.90;;;;;;20889532;28;20545;-49
2021/07/03 05:56:14;;;;;;;22.30;6.70;;;16.50;99.90;;;;;;20874641;28;20496;-49
2021/07/03 06:06:15;;;;;;;19.05;8.25;;;16.70;99.90;;;;;;20895017;28;20722;-49
2021/07/03 06:16:16;;;;;;;14.48;6.60;;;16.80;99.90;;;;;;20874209;28;20499;-49
2021/07/03 06:26:18;;;;;;;15.43;6.80;;;17.00;99.90;;;;;;20890654;28;20514;-49
2021/07/03 06:36:19;;;;;;;20.52;7.07;;;17.30;99.90;;;;;;20897002;28;20713;-49
2021/07/03 06:46:22;;;;;;;16.33;6.90;;;17.90;99.90;;;;;;20890492;28;20048;-49
2021/07/03 06:56:24;;;;;;;14.25;5.78;;;18.60;99.90;;;;;;20880962;28;20692;-49
2021/07/03 07:06:27;;;;;;;14.20;6.75;;;18.80;99.90;;;;;;20891652;28;20052;-49
2021/07/03 07:16:28;;;;;;;12.43;5.53;;;19.20;99.90;;;;;;20851204;28;21342;-49
2021/07/03 07:26:29;;;;;;;19.30;6.80;;;19.60;99.90;;;;;;20505202;28;20048;-49
2021/07/03 07:36:31;;;;;;;17.17;6.55;;;19.80;99.90;;;;;;20505168;28;20941;-49
2021/07/03 07:46:32;;;;;;;13.05;6.03;;;20.00;99.90;;;;;;20520174;28;20535;-49
2021/07/03 07:56:33;;;;;;;17.35;6.03;;;20.40;99.90;;;;;;20517880;28;20044;-49
2021/07/03 08:06:34;;;;;;;13.95;5.00;;;20.80;99.90;;;;;;20494793;28;20902;-49
2021/07/03 08:16:35;;;;;;;26.10;9.02;;;21.10;99.90;;;;;;20886905;28;20414;-49
2021/07/03 08:26:37;;;;;;;12.20;5.05;;;21.50;99.90;;;;;;20907209;28;20542;-49
2021/07/03 08:36:38;;;;;;;9.25;4.07;;;21.90;99.90;;;;;;20885761;28;20040;-49
2021/07/03 08:46:42;;;;;;;10.10;3.25;;;22.30;99.90;;;;;;20591894;28;20253;-49
2021/07/03 08:56:44;;;;;;;8.80;3.20;;;22.60;99.90;;;;;;20615096;28;21121;-49
2021/07/03 09:06:45;;;;;;;6.50;3.28;;;23.00;99.90;;;;;;20436340;28;20171;-49
2021/07/03 09:16:46;;;;;;;6.30;2.45;;;23.30;99.90;;;;;;20761374;28;20452;-49
2021/07/03 09:27:02;;;;;;;5.97;2.65;;;23.70;99.90;;;;;;20805392;28;20455;-49
2021/07/03 09:37:05;;;;;;;4.57;2.70;;;23.40;99.90;;;;;;20857319;28;20492;-49
2021/07/03 09:47:14;;;;;;;6.10;2.80;;;23.10;99.90;;;;;;20341342;28;20849;-49
2021/07/03 09:57:16;;;;;;;4.78;2.30;;;23.00;99.90;;;;;;20313335;28;20053;-49
2021/07/03 10:07:26;;;;;;;9.63;4.18;;;22.90;99.90;;;;;;20280843;28;20432;-49
2021/07/03 10:17:30;;;;;;;5.43;2.80;;;23.20;99.90;;;;;;20343651;28;25494;-49
2021/07/03 10:27:31;;;;;;;5.38;2.17;;;23.10;99.90;;;;;;20379238;28;20048;-49
2021/07/03 10:37:33;;;;;;;4.57;2.40;;;23.10;99.90;;;;;;20771283;28;20508;-49
2021/07/03 10:47:35;;;;;;;3.95;1.85;;;23.10;99.90;;;;;;20827316;28;20500;-49
2021/07/03 10:57:44;;;;;;;7.28;2.92;;;23.20;99.90;;;;;;20771340;28;20812;-49
2021/07/03 11:07:46;;;;;;;6.72;3.22;;;23.50;99.90;;;;;;20810833;28;20037;-49
2021/07/03 11:17:47;;;;;;;4.72;2.08;;;23.70;99.90;;;;;;20808394;28;20539;-49
2021/07/03 11:27:49;;;;;;;3.92;1.90;;;23.90;99.90;;;;;;20817911;28;20436;-49
2021/07/03 11:37:50;;;;;;;4.13;1.92;;;24.20;99.90;;;;;;20780952;28;20561;-49
2021/07/03 11:47:55;;;;;;;3.45;1.67;;;24.30;99.90;;;;;;20830115;28;20756;-49
2021/07/03 11:57:56;;;;;;;4.55;2.13;;;24.00;99.90;;;;;;20858771;28;20049;-49
2021/07/03 12:08:08;;;;;;;4.57;2.28;;;23.70;99.90;;;;;;20880661;28;20503;-49
2021/07/03 12:18:09;;;;;;;4.57;2.00;;;23.80;99.90;;;;;;20881829;28;20595;-49
2021/07/03 12:28:11;;;;;;;3.75;1.95;;;23.90;99.90;;;;;;20859467;28;20071;-49
2021/07/03 12:38:12;;;;;;;3.50;2.15;;;23.90;99.90;;;;;;20862936;28;20396;-49
2021/07/03 12:48:15;;;;;;;4.50;2.53;;;24.10;99.90;;;;;;20836929;28;20562;-49
2021/07/03 12:58:30;;;;;;;7.38;2.60;;;24.20;99.90;;;;;;20883779;28;20048;-48
2021/07/03 13:08:34;;;;;;;6.40;2.60;;;24.00;99.90;;;;;;20884165;28;20041;-49
2021/07/03 13:18:35;;;;;;;6.25;2.22;;;23.80;99.90;;;;;;20846837;28;20408;-48
2021/07/03 13:28:39;;;;;;;3.47;1.80;;;24.00;99.90;;;;;;20872852;28;20946;-49
2021/07/03 13:38:40;;;;;;;2.92;1.38;;;24.10;99.90;;;;;;20891432;28;20645;-49
2021/07/03 13:48:42;;;;;;;3.38;1.65;;;24.20;99.90;;;;;;20890350;28;20654;-49
2021/07/03 13:58:44;;;;;;;3.83;2.03;;;24.20;99.90;;;;;;20892795;28;20496;-49
2021/07/03 14:08:45;;;;;;;4.20;2.15;;;24.10;99.90;;;;;;20874384;28;20412;-49
2021/07/03 14:18:46;;;;;;;3.15;1.73;;;24.30;99.90;;;;;;20904856;28;20715;-49
2021/07/03 14:28:47;;;;;;;10.00;1.83;;;24.20;99.90;;;;;;20883644;28;20616;-49
2021/07/03 14:38:50;;;;;;;2.58;1.30;;;24.50;99.90;;;;;;20892885;28;20416;-49
2021/07/03 14:48:51;;;;;;;2.88;1.38;;;24.60;99.90;;;;;;20896034;28;20617;-49
2021/07/03 14:58:53;;;;;;;5.07;1.77;;;24.40;99.90;;;;;;20880183;28;20439;-47
2021/07/03 15:08:54;;;;;;;4.93;2.53;;;24.40;99.90;;;;;;20891867;28;20052;-49
2021/07/03 15:18:56;;;;;;;3.97;1.92;;;24.20;99.90;;;;;;20911432;28;20060;-49
2021/07/03 15:28:57;;;;;;;4.28;2.33;;;24.00;99.90;;;;;;20899036;28;20049;-49
2021/07/03 15:38:59;;;;;;;3.80;1.90;;;24.00;99.90;;;;;;20906251;28;20682;-49
2021/07/03 15:49:00;;;;;;;4.70;2.22;;;24.10;99.90;;;;;;20902977;28;20615;-49
2021/07/03 15:59:01;;;;;;;5.47;2.53;;;24.20;99.90;;;;;;20890914;28;20558;-49
2021/07/03 16:09:03;;;;;;;5.55;2.65;;;24.30;99.90;;;;;;20905983;28;20489;-49
2021/07/03 16:19:05;;;;;;;4.88;2.70;;;24.20;99.90;;;;;;20888513;28;20507;-49
2021/07/03 16:29:06;;;;;;;5.82;2.50;;;24.10;99.90;;;;;;20892647;28;21027;-49
2021/07/03 16:39:07;;;;;;;6.28;2.03;;;24.10;99.90;;;;;;20909478;28;20072;-49
2021/07/03 16:49:08;;;;;;;3.95;2.20;;;23.90;99.90;;;;;;20912655;28;20384;-49
2021/07/03 16:59:09;;;;;;;6.75;3.05;;;23.70;99.90;;;;;;20887112;28;20479;-49
2021/07/03 17:09:10;;;;;;;9.18;3.38;;;23.50;99.90;;;;;;20904669;28;20511;-48
2021/07/03 17:19:12;;;;;;;6.38;3.03;;;22.90;99.90;;;;;;20877745;28;20479;-52
2021/07/03 17:29:14;;;;;;;13.35;4.40;;;21.50;99.90;;;;;;20880451;28;20449;-49
2021/07/03 17:39:15;;;;;;;12.93;3.63;;;20.80;99.90;;;;;;20890973;28;20850;-51
2021/07/03 17:49:16;;;;;;;10.80;5.05;;;19.80;99.90;;;;;;20887505;28;20516;-51
2021/07/03 17:59:17;;;;;;;10.02;4.53;;;19.30;99.90;;;;;;20874059;28;20570;-50
2021/07/03 18:09:19;;;;;;;9.45;4.30;;;19.00;99.90;;;;;;20881236;28;20499;-51
2021/07/03 18:19:20;;;;;;;8.57;4.13;;;18.90;99.90;;;;;;20881377;28;20048;-50
2021/07/03 18:29:22;;;;;;;11.60;4.93;;;18.90;99.90;;;;;;20882391;28;20037;-50
2021/07/03 18:39:23;;;;;;;8.98;4.38;;;18.80;99.90;;;;;;20885897;28;20413;-50
2021/07/03 18:49:25;;;;;;;8.88;4.53;;;18.80;99.90;;;;;;20878469;28;20049;-51
2021/07/03 18:59:31;;;;;;;9.20;4.22;;;18.70;99.90;;;;;;20876378;28;20116;-51
2021/07/03 19:09:32;;;;;;;13.48;4.90;;;18.70;99.90;;;;;;20874515;28;20437;-50
2021/07/03 19:19:33;;;;;;;8.52;4.15;;;18.60;99.90;;;;;;20887161;28;20412;-51
2021/07/03 19:29:34;;;;;;;10.88;5.18;;;18.60;99.90;;;;;;20883721;28;20578;-51
2021/07/03 19:39:36;;;;;;;10.10;4.53;;;18.60;99.90;;;;;;20876924;28;20044;-50
2021/07/03 19:49:37;;;;;;;12.15;5.93;;;18.70;99.90;;;;;;20872453;28;20292;-50
2021/07/03 19:59:42;;;;;;;11.63;4.78;;;18.70;99.90;;;;;;20882064;28;20475;-50
2021/07/03 20:09:43;;;;;;;9.38;5.43;;;18.60;99.90;;;;;;20893986;28;20388;-51
2021/07/03 20:19:45;;;;;;;11.40;5.15;;;18.50;99.90;;;;;;20887738;28;20555;-51
2021/07/03 20:29:46;;;;;;;10.40;5.53;;;18.40;99.90;;;;;;20880526;28;20580;-51
2021/07/03 20:39:47;;;;;;;15.27;6.18;;;18.30;99.90;;;;;;20882335;28;20585;-50
2021/07/03 20:49:48;;;;;;;12.68;4.95;;;18.20;99.90;;;;;;20895312;28;20602;-50
2021/07/03 20:59:50;;;;;;;8.98;3.88;;;18.10;99.90;;;;;;20870539;28;20048;-50
2021/07/03 21:09:51;;;;;;;14.52;5.32;;;18.10;99.90;;;;;;20892188;28;20564;-50
2021/07/03 21:19:52;;;;;;;11.05;4.50;;;18.10;99.90;;;;;;20875569;28;20557;-50
2021/07/03 21:29:54;;;;;;;17.42;5.63;;;18.20;99.90;;;;;;20893785;28;20029;-50
2021/07/03 21:39:55;;;;;;;12.65;5.97;;;18.20;99.90;;;;;;20882428;28;20398;-50
2021/07/03 21:49:56;;;;;;;14.00;6.70;;;18.20;99.90;;;;;;20887760;28;20475;-49
2021/07/03 21:59:57;;;;;;;12.20;6.15;;;18.20;99.90;;;;;;20880100;28;20455;-50
2021/07/03 22:09:58;;;;;;;15.02;6.85;;;18.00;99.90;;;;;;20865314;28;20508;-49
2021/07/03 22:20:00;;;;;;;13.43;5.78;;;18.00;99.90;;;;;;20888040;28;20586;-49
2021/07/03 22:30:04;;;;;;;14.95;5.72;;;18.00;99.90;;;;;;20883928;28;20492;-49
2021/07/03 22:40:09;;;;;;;16.35;5.78;;;18.00;99.90;;;;;;20879539;28;20609;-49
2021/07/03 22:50:15;;;;;;;13.90;6.10;;;18.00;99.90;;;;;;20880613;28;20542;-49
2021/07/03 23:00:31;;;;;;;11.67;5.80;;;18.00;99.90;;;;;;20893001;28;20661;-49
2021/07/03 23:10:36;;;;;;;16.80;6.13;;;18.00;99.90;;;;;;20887534;28;20374;-49
2021/07/03 23:20:38;;;;;;;12.65;6.35;;;18.00;99.90;;;;;;20883575;28;20789;-49
2021/07/03 23:30:40;;;;;;;16.52;7.18;;;18.00;99.90;;;;;;20897655;28;20033;-49
2021/07/03 23:40:42;;;;;;;15.88;6.18;;;18.10;99.90;;;;;;20908229;28;20430;-49
2021/07/03 23:50:43;;;;;;;13.23;6.07;;;18.00;99.90;;;;;;20903183;28;20372;-49
